PWSweather.com
Personal Weather Stations
Station Observations
PALMY
Palmerston NorthNZ 4410

Palmerston NorthNZ 4410

Lat: -40.349104, Lon: 175.615094

Elevation: 75.4

Station Type: WeatherDuino Pro2

http://palmyweather.co.nz

High Low Average
Temperature 53.4°F11.9°F 39.3°F4.1°F 48.5°F9.2°F
Dew Point 50.0°F10.0°F 38.0°F3.3°F 44.9°F7.2°F
Winds 8.5 mph WNW13.7 mph WNW Calm Calm 3.1 mph 5.0 mph
Wind Gusts 25.1 mph40.4 mph -- 8.0 mph12.9 mph
Humidity 96% 73% 87%
Pressure 29.86 in1011.20 in 29.66 in1004.40 in -
Precipitation 1.69 in42.90 in - -
Hour Temp Dew Point Humidity Winds Wind Gusts Pressure Precip Precip Rate Daily Precip Total
12:00 AM 50.0°F10.0°C 45.4°F7.4°C 84% 5.4 mph WNW8.7 kmh WNW 13.9 mph22.4 kmh 29.74 in1007.1 mb 0.00 in0.0 mm 0.00 in0.0 mm 0.00 in0.0 mm
12:05 AM 50.1°F10.1°C 45.5°F7.5°C 84% 6.3 mph WNW10.1 kmh WNW 17.5 mph28.2 kmh 29.74 in1007.1 mb 0.00 in0.0 mm 0.00 in0.0 mm 0.00 in0.0 mm
12:10 AM 50.0°F10.0°C 45.7°F7.6°C 85% 5.8 mph WNW9.3 kmh WNW 17.5 mph28.2 kmh 29.74 in1007.1 mb 0.00 in0.0 mm 0.00 in0.0 mm 0.00 in0.0 mm
12:15 AM 50.0°F10.0°C 45.7°F7.6°C 85% 5.8 mph WNW9.3 kmh WNW 13.9 mph22.4 kmh 29.74 in1007.1 mb 0.00 in0.0 mm 0.00 in0.0 mm 0.00 in0.0 mm
12:20 AM 50.1°F10.1°C 45.8°F7.7°C 85% 5.4 mph WNW8.7 kmh WNW 13.4 mph21.6 kmh 29.74 in1007.1 mb 0.00 in0.0 mm 0.00 in0.0 mm 0.00 in0.0 mm
12:25 AM 50.0°F10.0°C 45.7°F7.6°C 85% 5.8 mph WNW9.3 kmh WNW 12.5 mph20.1 kmh 29.74 in1007.1 mb 0.00 in0.0 mm 0.00 in0.0 mm 0.00 in0.0 mm
12:30 AM 49.8°F9.9°C 45.5°F7.5°C 85% 6.3 mph WNW10.1 kmh WNW 15.2 mph24.5 kmh 29.74 in1007.1 mb 0.00 in0.0 mm 0.00 in0.0 mm 0.00 in0.0 mm
12:35 AM 49.8°F9.9°C 45.5°F7.5°C 85% 6.3 mph W10.1 kmh W 15.2 mph24.5 kmh 29.74 in1007.1 mb 0.00 in0.0 mm 0.00 in0.0 mm 0.00 in0.0 mm
12:40 AM 49.8°F9.9°C 45.5°F7.5°C 85% 4.9 mph W7.9 kmh W 19.7 mph31.7 kmh 29.74 in1007.1 mb 0.00 in0.0 mm 0.00 in0.0 mm 0.00 in0.0 mm
12:45 AM 49.6°F9.8°C 45.3°F7.4°C 85% 4.5 mph W7.2 kmh W 19.7 mph31.7 kmh 29.74 in1007.1 mb 0.00 in0.0 mm 0.00 in0.0 mm 0.00 in0.0 mm
12:50 AM 49.6°F9.8°C 45.3°F7.4°C 85% 4.0 mph W6.4 kmh W 9.4 mph15.1 kmh 29.74 in1007.1 mb 0.00 in0.0 mm 0.00 in0.0 mm 0.00 in0.0 mm
12:55 AM 50.5°F10.3°C 45.9°F7.7°C 84% 4.5 mph W7.2 kmh W 15.2 mph24.5 kmh 29.74 in1007.1 mb 0.00 in0.0 mm 0.00 in0.0 mm 0.00 in0.0 mm
01:00 AM 50.7°F10.4°C 45.8°F7.7°C 83% 4.0 mph W6.4 kmh W 15.2 mph24.5 kmh 29.74 in1007.1 mb 0.00 in0.0 mm 0.00 in0.0 mm 0.00 in0.0 mm
01:05 AM 50.7°F10.4°C 46.1°F7.8°C 84% 4.0 mph WSW6.4 kmh WSW 10.3 mph16.6 kmh 29.74 in1007.1 mb 0.00 in0.0 mm 0.00 in0.0 mm 0.00 in0.0 mm
01:10 AM 50.9°F10.5°C 46.0°F7.8°C 83% 4.5 mph W7.2 kmh W 10.3 mph16.6 kmh 29.74 in1007.1 mb 0.00 in0.0 mm 0.00 in0.0 mm 0.00 in0.0 mm
01:15 AM 51.0°F10.6°C 46.1°F7.8°C 83% 4.0 mph W6.4 kmh W 10.3 mph16.6 kmh 29.74 in1007.1 mb 0.00 in0.0 mm 0.00 in0.0 mm 0.00 in0.0 mm
01:20 AM 51.2°F10.7°C 46.3°F7.9°C 83% 4.0 mph W6.4 kmh W 10.3 mph16.6 kmh 29.74 in1007.1 mb 0.00 in0.0 mm 0.00 in0.0 mm 0.00 in0.0 mm
01:25 AM 51.4°F10.8°C 46.4°F8.0°C 83% 4.0 mph W6.4 kmh W 9.4 mph15.1 kmh 29.74 in1007.1 mb 0.00 in0.0 mm 0.00 in0.0 mm 0.00 in0.0 mm
01:30 AM 51.8°F11.0°C 46.8°F8.2°C 83% 4.5 mph W7.2 kmh W 13.4 mph21.6 kmh 29.73 in1006.8 mb 0.00 in0.0 mm 0.00 in0.0 mm 0.00 in0.0 mm
01:35 AM 51.8°F11.0°C 47.2°F8.4°C 84% 4.5 mph W7.2 kmh W 13.4 mph21.6 kmh 29.73 in1006.8 mb 0.00 in0.0 mm 0.00 in0.0 mm 0.00 in0.0 mm
01:40 AM 51.6°F10.9°C 47.6°F8.7°C 86% 4.5 mph W7.2 kmh W 11.2 mph18.0 kmh 29.73 in1006.8 mb 0.00 in0.0 mm 0.00 in0.0 mm 0.00 in0.0 mm
01:45 AM 51.4°F10.8°C 47.7°F8.7°C 87% 4.5 mph W7.2 kmh W 11.2 mph18.0 kmh 29.73 in1006.8 mb 0.00 in0.0 mm 0.00 in0.0 mm 0.00 in0.0 mm
01:50 AM 51.4°F10.8°C 47.7°F8.7°C 87% 4.0 mph W6.4 kmh W 9.4 mph15.1 kmh 29.72 in1006.4 mb 0.00 in0.0 mm 0.00 in0.0 mm 0.00 in0.0 mm
01:55 AM 51.6°F10.9°C 47.9°F8.8°C 87% 3.6 mph W5.8 kmh W 8.5 mph13.7 kmh 29.72 in1006.4 mb 0.00 in0.0 mm 0.00 in0.0 mm 0.00 in0.0 mm
02:00 AM 51.8°F11.0°C 48.1°F8.9°C 87% 3.6 mph W5.8 kmh W 8.1 mph13.0 kmh 29.72 in1006.4 mb 0.00 in0.0 mm 0.00 in0.0 mm 0.00 in0.0 mm
02:05 AM 51.4°F10.8°C 48.3°F9.1°C 89% 4.0 mph W6.4 kmh W 8.1 mph13.0 kmh 29.72 in1006.4 mb 0.01 in0.3 mm 0.12 in3.0 mm 0.01 in0.3 mm
02:10 AM 51.0°F10.6°C 47.9°F8.8°C 89% 4.0 mph W6.4 kmh W 13.4 mph21.6 kmh 29.72 in1006.4 mb 0.01 in0.3 mm 0.00 in0.0 mm 0.01 in0.3 mm
02:15 AM 50.9°F10.5°C 48.1°F8.9°C 90% 4.5 mph W7.2 kmh W 13.4 mph21.6 kmh 29.72 in1006.4 mb 0.02 in0.5 mm 0.12 in3.0 mm 0.02 in0.5 mm
02:20 AM 51.0°F10.6°C 48.8°F9.3°C 92% 5.4 mph W8.7 kmh W 17.5 mph28.2 kmh 29.71 in1006.1 mb 0.03 in0.8 mm 0.12 in3.0 mm 0.03 in0.8 mm
02:25 AM 50.9°F10.5°C 48.7°F9.3°C 92% 4.9 mph W7.9 kmh W 17.5 mph28.2 kmh 29.71 in1006.1 mb 0.03 in0.8 mm 0.00 in0.0 mm 0.03 in0.8 mm
02:30 AM 50.7°F10.4°C 48.8°F9.3°C 93% 4.0 mph W6.4 kmh W 9.4 mph15.1 kmh 29.71 in1006.1 mb 0.03 in0.8 mm 0.00 in0.0 mm 0.03 in0.8 mm
02:35 AM 50.9°F10.5°C 49.0°F9.4°C 93% 4.5 mph WNW7.2 kmh WNW 13.4 mph21.6 kmh 29.71 in1006.1 mb 0.04 in1.0 mm 0.12 in3.0 mm 0.04 in1.0 mm
02:40 AM 51.0°F10.6°C 49.1°F9.5°C 93% 5.8 mph WNW9.3 kmh WNW 13.4 mph21.6 kmh 29.71 in1006.1 mb 0.04 in1.0 mm 0.00 in0.0 mm 0.04 in1.0 mm
02:45 AM 51.2°F10.7°C 49.3°F9.6°C 93% 6.7 mph W10.8 kmh W 19.7 mph31.7 kmh 29.71 in1006.1 mb 0.04 in1.0 mm 0.00 in0.0 mm 0.04 in1.0 mm
02:50 AM 51.4°F10.8°C 49.5°F9.7°C 93% 7.2 mph W11.6 kmh W 19.7 mph31.7 kmh 29.71 in1006.1 mb 0.04 in1.0 mm 0.00 in0.0 mm 0.04 in1.0 mm
02:55 AM 51.4°F10.8°C 49.2°F9.6°C 92% 6.3 mph W10.1 kmh W 16.1 mph25.9 kmh 29.70 in1005.8 mb 0.05 in1.3 mm 0.12 in3.0 mm 0.05 in1.3 mm
03:00 AM 51.4°F10.8°C 49.5°F9.7°C 93% 4.9 mph W7.9 kmh W 14.8 mph23.8 kmh 29.70 in1005.8 mb 0.06 in1.5 mm 0.01 in0.3 mm 0.06 in1.5 mm
03:05 AM 51.2°F10.7°C 49.6°F9.8°C 94% 4.5 mph WSW7.2 kmh WSW 10.8 mph17.4 kmh 29.69 in1005.4 mb 0.05 in1.3 mm 0.00 in0.0 mm 0.06 in1.5 mm
03:10 AM 51.2°F10.7°C 49.6°F9.8°C 94% 4.5 mph W7.2 kmh W 9.4 mph15.1 kmh 29.69 in1005.4 mb 0.06 in1.5 mm 0.12 in3.0 mm 0.06 in1.5 mm
03:15 AM 51.4°F10.8°C 49.8°F9.9°C 94% 5.4 mph W8.7 kmh W 13.0 mph20.9 kmh 29.69 in1005.4 mb 0.03 in0.8 mm 0.00 in0.0 mm 0.06 in1.5 mm
03:20 AM 51.6°F10.9°C 50.0°F10.0°C 94% 6.7 mph WNW10.8 kmh WNW 14.8 mph23.8 kmh 29.68 in1005.1 mb 0.03 in0.8 mm 0.00 in0.0 mm 0.06 in1.5 mm
03:25 AM 51.8°F11.0°C 49.9°F9.9°C 93% 6.7 mph WNW10.8 kmh WNW 14.8 mph23.8 kmh 29.68 in1005.1 mb 0.03 in0.8 mm 0.00 in0.0 mm 0.06 in1.5 mm
03:30 AM 51.8°F11.0°C 49.9°F9.9°C 93% 6.7 mph WNW10.8 kmh WNW 17.9 mph28.8 kmh 29.68 in1005.1 mb 0.03 in0.8 mm 0.00 in0.0 mm 0.06 in1.5 mm
03:35 AM 51.9°F11.1°C 49.7°F9.8°C 92% 7.2 mph WNW11.6 kmh WNW 17.9 mph28.8 kmh 29.68 in1005.1 mb 0.02 in0.5 mm 0.00 in0.0 mm 0.06 in1.5 mm
03:40 AM 52.1°F11.2°C 49.6°F9.8°C 91% 8.1 mph WNW13.0 kmh WNW 25.1 mph40.4 kmh 29.68 in1005.1 mb 0.03 in0.8 mm 0.12 in3.0 mm 0.07 in1.8 mm
03:45 AM 52.1°F11.2°C 49.3°F9.6°C 90% 7.6 mph WNW12.2 kmh WNW 25.1 mph40.4 kmh 29.68 in1005.1 mb 0.03 in0.8 mm 0.00 in0.0 mm 0.07 in1.8 mm
03:50 AM 52.1°F11.2°C 49.6°F9.8°C 91% 6.7 mph W10.8 kmh W 15.7 mph25.3 kmh 29.68 in1005.1 mb 0.03 in0.8 mm 0.00 in0.0 mm 0.07 in1.8 mm
03:55 AM 51.9°F11.1°C 49.4°F9.7°C 91% 4.9 mph WNW7.9 kmh WNW 10.8 mph17.4 kmh 29.67 in1004.7 mb 0.02 in0.5 mm 0.00 in0.0 mm 0.07 in1.8 mm
04:00 AM 52.1°F11.2°C 49.6°F9.8°C 91% 5.4 mph WNW8.7 kmh WNW 14.3 mph23.0 kmh 29.67 in1004.7 mb 0.02 in0.5 mm 0.00 in0.0 mm 0.07 in1.8 mm
04:05 AM 52.1°F11.2°C 49.6°F9.8°C 91% 6.7 mph WNW10.8 kmh WNW 22.0 mph35.4 kmh 29.66 in1004.4 mb 0.02 in0.5 mm 0.00 in0.0 mm 0.07 in1.8 mm
04:10 AM 52.1°F11.2°C 49.6°F9.8°C 91% 7.6 mph WNW12.2 kmh WNW 22.0 mph35.4 kmh 29.66 in1004.4 mb 0.01 in0.3 mm 0.00 in0.0 mm 0.07 in1.8 mm
04:15 AM 52.3°F11.3°C 49.5°F9.7°C 90% 7.6 mph WNW12.2 kmh WNW 18.4 mph29.6 kmh 29.67 in1004.7 mb 0.01 in0.3 mm 0.00 in0.0 mm 0.07 in1.8 mm
04:20 AM 52.5°F11.4°C 49.7°F9.8°C 90% 7.2 mph WNW11.6 kmh WNW 18.4 mph29.6 kmh 29.66 in1004.4 mb 0.01 in0.3 mm 0.00 in0.0 mm 0.07 in1.8 mm
04:25 AM 52.5°F11.4°C 49.7°F9.8°C 90% 7.2 mph WNW11.6 kmh WNW 17.0 mph27.4 kmh 29.67 in1004.7 mb 0.01 in0.3 mm 0.00 in0.0 mm 0.07 in1.8 mm
04:30 AM 52.7°F11.5°C 49.6°F9.8°C 89% 8.1 mph WNW13.0 kmh WNW 17.0 mph27.4 kmh 29.66 in1004.4 mb 0.01 in0.3 mm 0.00 in0.0 mm 0.07 in1.8 mm
04:35 AM 52.8°F11.6°C 49.7°F9.8°C 89% 8.5 mph WNW13.7 kmh WNW 19.3 mph31.1 kmh 29.67 in1004.7 mb 0.01 in0.3 mm 0.00 in0.0 mm 0.07 in1.8 mm
04:40 AM 52.8°F11.6°C 49.7°F9.8°C 89% 8.1 mph WNW13.0 kmh WNW 19.3 mph31.1 kmh 29.66 in1004.4 mb 0.00 in0.0 mm 0.00 in0.0 mm 0.07 in1.8 mm
04:45 AM 52.8°F11.6°C 49.7°F9.8°C 89% 7.6 mph WNW12.2 kmh WNW 21.5 mph34.6 kmh 29.66 in1004.4 mb 0.00 in0.0 mm 0.00 in0.0 mm 0.07 in1.8 mm
04:50 AM 52.8°F11.6°C 49.7°F9.8°C 89% 6.7 mph WNW10.8 kmh WNW 21.5 mph34.6 kmh 29.66 in1004.4 mb 0.00 in0.0 mm 0.00 in0.0 mm 0.07 in1.8 mm
04:55 AM 52.8°F11.6°C 49.4°F9.7°C 88% 6.7 mph W10.8 kmh W 14.8 mph23.8 kmh 29.66 in1004.4 mb 0.00 in0.0 mm 0.00 in0.0 mm 0.07 in1.8 mm
05:00 AM 52.8°F11.6°C 49.1°F9.5°C 87% 7.2 mph W11.6 kmh W 16.6 mph26.7 kmh 29.66 in1004.4 mb 0.00 in0.0 mm 0.00 in0.0 mm 0.07 in1.8 mm
05:05 AM 53.0°F11.7°C 49.3°F9.6°C 87% 6.7 mph W10.8 kmh W 16.6 mph26.7 kmh 29.66 in1004.4 mb 0.00 in0.0 mm 0.00 in0.0 mm 0.07 in1.8 mm
05:10 AM 53.0°F11.7°C 49.3°F9.6°C 87% 6.7 mph W10.8 kmh W 15.2 mph24.5 kmh 29.66 in1004.4 mb 0.00 in0.0 mm 0.00 in0.0 mm 0.07 in1.8 mm
05:15 AM 53.0°F11.7°C 49.3°F9.6°C 87% 6.7 mph W10.8 kmh W 15.2 mph24.5 kmh 29.66 in1004.4 mb 0.00 in0.0 mm 0.00 in0.0 mm 0.07 in1.8 mm
05:20 AM 53.0°F11.7°C 49.3°F9.6°C 87% 5.8 mph W9.3 kmh W 13.4 mph21.6 kmh 29.66 in1004.4 mb 0.00 in0.0 mm 0.00 in0.0 mm 0.07 in1.8 mm
05:25 AM 53.2°F11.8°C 49.2°F9.6°C 86% 6.7 mph W10.8 kmh W 17.0 mph27.4 kmh 29.66 in1004.4 mb 0.00 in0.0 mm 0.00 in0.0 mm 0.07 in1.8 mm
05:30 AM 53.2°F11.8°C 48.8°F9.3°C 85% 7.2 mph W11.6 kmh W 17.0 mph27.4 kmh 29.66 in1004.4 mb 0.00 in0.0 mm 0.00 in0.0 mm 0.07 in1.8 mm
05:35 AM 53.2°F11.8°C 49.2°F9.6°C 86% 7.2 mph W11.6 kmh W 16.1 mph25.9 kmh 29.66 in1004.4 mb 0.00 in0.0 mm 0.00 in0.0 mm 0.07 in1.8 mm
05:40 AM 53.2°F11.8°C 49.2°F9.6°C 86% 6.7 mph W10.8 kmh W 14.3 mph23.0 kmh 29.66 in1004.4 mb 0.00 in0.0 mm 0.00 in0.0 mm 0.07 in1.8 mm
05:45 AM 53.2°F11.8°C 49.2°F9.6°C 86% 6.7 mph W10.8 kmh W 17.0 mph27.4 kmh 29.66 in1004.4 mb 0.00 in0.0 mm 0.00 in0.0 mm 0.07 in1.8 mm
05:50 AM 53.4°F11.9°C 49.0°F9.4°C 85% 6.7 mph W10.8 kmh W 17.0 mph27.4 kmh 29.66 in1004.4 mb 0.00 in0.0 mm 0.00 in0.0 mm 0.07 in1.8 mm
05:55 AM 53.2°F11.8°C 49.2°F9.6°C 86% 6.7 mph W10.8 kmh W 15.2 mph24.5 kmh 29.66 in1004.4 mb 0.00 in0.0 mm 0.00 in0.0 mm 0.07 in1.8 mm
06:00 AM 53.2°F11.8°C 49.2°F9.6°C 86% 6.3 mph WNW10.1 kmh WNW 15.2 mph24.5 kmh 29.67 in1004.7 mb 0.00 in0.0 mm 0.00 in0.0 mm 0.07 in1.8 mm
06:05 AM 53.2°F11.8°C 49.2°F9.6°C 86% 6.3 mph WNW10.1 kmh WNW 15.7 mph25.3 kmh 29.66 in1004.4 mb 0.00 in0.0 mm 0.00 in0.0 mm 0.07 in1.8 mm
06:10 AM 53.2°F11.8°C 49.2°F9.6°C 86% 5.8 mph W9.3 kmh W 17.0 mph27.4 kmh 29.66 in1004.4 mb 0.00 in0.0 mm 0.00 in0.0 mm 0.07 in1.8 mm
06:15 AM 53.2°F11.8°C 49.2°F9.6°C 86% 5.4 mph W8.7 kmh W 17.0 mph27.4 kmh 29.67 in1004.7 mb 0.00 in0.0 mm 0.00 in0.0 mm 0.07 in1.8 mm
06:20 AM 53.2°F11.8°C 49.2°F9.6°C 86% 4.9 mph W7.9 kmh W 12.1 mph19.5 kmh 29.66 in1004.4 mb 0.00 in0.0 mm 0.00 in0.0 mm 0.07 in1.8 mm
06:25 AM 53.4°F11.9°C 49.0°F9.4°C 85% 4.9 mph W7.9 kmh W 12.1 mph19.5 kmh 29.66 in1004.4 mb 0.00 in0.0 mm 0.00 in0.0 mm 0.07 in1.8 mm
06:30 AM 53.2°F11.8°C 49.2°F9.6°C 86% 4.5 mph W7.2 kmh W 9.0 mph14.5 kmh 29.66 in1004.4 mb 0.00 in0.0 mm 0.00 in0.0 mm 0.07 in1.8 mm
06:35 AM 53.2°F11.8°C 49.5°F9.7°C 87% 4.5 mph W7.2 kmh W 12.1 mph19.5 kmh 29.66 in1004.4 mb 0.00 in0.0 mm 0.00 in0.0 mm 0.07 in1.8 mm
06:40 AM 53.2°F11.8°C 49.5°F9.7°C 87% 4.9 mph W7.9 kmh W 12.1 mph19.5 kmh 29.67 in1004.7 mb 0.00 in0.0 mm 0.00 in0.0 mm 0.07 in1.8 mm
06:45 AM 53.2°F11.8°C 49.5°F9.7°C 87% 4.9 mph W7.9 kmh W 12.1 mph19.5 kmh 29.67 in1004.7 mb 0.00 in0.0 mm 0.00 in0.0 mm 0.07 in1.8 mm
06:50 AM 53.4°F11.9°C 49.4°F9.7°C 86% 5.8 mph WSW9.3 kmh WSW 22.8 mph36.7 kmh 29.67 in1004.7 mb 0.00 in0.0 mm 0.00 in0.0 mm 0.07 in1.8 mm
06:55 AM 53.2°F11.8°C 49.2°F9.6°C 86% 5.8 mph W9.3 kmh W 22.8 mph36.7 kmh 29.67 in1004.7 mb 0.00 in0.0 mm 0.00 in0.0 mm 0.07 in1.8 mm
07:00 AM 52.8°F11.6°C 49.1°F9.5°C 87% 4.9 mph W7.9 kmh W 15.2 mph24.5 kmh 29.67 in1004.7 mb 0.00 in0.0 mm 0.00 in0.0 mm 0.07 in1.8 mm
07:05 AM 52.7°F11.5°C 49.3°F9.6°C 88% 3.6 mph W5.8 kmh W 15.2 mph24.5 kmh 29.68 in1005.1 mb 0.00 in0.0 mm 0.00 in0.0 mm 0.07 in1.8 mm
07:10 AM 52.7°F11.5°C 49.3°F9.6°C 88% 3.6 mph W5.8 kmh W 9.9 mph15.9 kmh 29.68 in1005.1 mb 0.00 in0.0 mm 0.00 in0.0 mm 0.07 in1.8 mm
07:15 AM 52.5°F11.4°C 49.1°F9.5°C 88% 3.1 mph W5.0 kmh W 8.5 mph13.7 kmh 29.68 in1005.1 mb 0.00 in0.0 mm 0.00 in0.0 mm 0.07 in1.8 mm
07:20 AM 52.5°F11.4°C 49.1°F9.5°C 88% 3.1 mph W5.0 kmh W 8.5 mph13.7 kmh 29.68 in1005.1 mb 0.00 in0.0 mm 0.00 in0.0 mm 0.07 in1.8 mm
07:25 AM 52.7°F11.5°C 49.3°F9.6°C 88% 4.0 mph W6.4 kmh W 8.5 mph13.7 kmh 29.68 in1005.1 mb 0.00 in0.0 mm 0.00 in0.0 mm 0.07 in1.8 mm
07:30 AM 52.5°F11.4°C 49.1°F9.5°C 88% 4.0 mph WSW6.4 kmh WSW 9.0 mph14.5 kmh 29.68 in1005.1 mb 0.00 in0.0 mm 0.00 in0.0 mm 0.07 in1.8 mm
07:35 AM 51.9°F11.1°C 48.2°F9.0°C 87% 4.9 mph SW7.9 kmh SW 11.6 mph18.7 kmh 29.69 in1005.4 mb 0.00 in0.0 mm 0.00 in0.0 mm 0.07 in1.8 mm
07:40 AM 51.4°F10.8°C 47.4°F8.6°C 86% 5.4 mph SW8.7 kmh SW 13.0 mph20.9 kmh 29.69 in1005.4 mb 0.00 in0.0 mm 0.00 in0.0 mm 0.07 in1.8 mm
07:45 AM 51.2°F10.7°C 47.2°F8.4°C 86% 4.5 mph WSW7.2 kmh WSW 13.0 mph20.9 kmh 29.68 in1005.1 mb 0.00 in0.0 mm 0.00 in0.0 mm 0.07 in1.8 mm
07:50 AM 51.0°F10.6°C 47.0°F8.3°C 86% 3.6 mph WSW5.8 kmh WSW 9.9 mph15.9 kmh 29.68 in1005.1 mb 0.00 in0.0 mm 0.00 in0.0 mm 0.07 in1.8 mm
07:55 AM 50.9°F10.5°C 46.6°F8.1°C 85% 3.1 mph SW5.0 kmh SW 9.9 mph15.9 kmh 29.68 in1005.1 mb 0.00 in0.0 mm 0.00 in0.0 mm 0.07 in1.8 mm
08:00 AM 50.9°F10.5°C 46.6°F8.1°C 85% 2.7 mph WSW4.3 kmh WSW 5.8 mph9.3 kmh 29.69 in1005.4 mb 0.00 in0.0 mm 0.00 in0.0 mm 0.07 in1.8 mm
08:05 AM 50.9°F10.5°C 46.6°F8.1°C 85% 2.2 mph WSW3.5 kmh WSW 4.9 mph7.9 kmh 29.69 in1005.4 mb 0.00 in0.0 mm 0.00 in0.0 mm 0.07 in1.8 mm
08:10 AM 50.9°F10.5°C 46.6°F8.1°C 85% 1.8 mph WSW2.9 kmh WSW 4.9 mph7.9 kmh 29.69 in1005.4 mb 0.00 in0.0 mm 0.00 in0.0 mm 0.07 in1.8 mm
08:15 AM 50.7°F10.4°C 46.4°F8.0°C 85% 0.9 mph WSW1.4 kmh WSW 2.7 mph4.3 kmh 29.69 in1005.4 mb 0.00 in0.0 mm 0.00 in0.0 mm 0.07 in1.8 mm
08:20 AM 50.7°F10.4°C 46.7°F8.2°C 86% 0.9 mph WSW1.4 kmh WSW 2.2 mph3.5 kmh 29.69 in1005.4 mb 0.00 in0.0 mm 0.00 in0.0 mm 0.07 in1.8 mm
08:25 AM 50.7°F10.4°C 46.7°F8.2°C 86% 0.9 mph SW1.4 kmh SW 3.6 mph5.8 kmh 29.69 in1005.4 mb 0.00 in0.0 mm 0.00 in0.0 mm 0.07 in1.8 mm
08:30 AM 50.9°F10.5°C 46.6°F8.1°C 85% 0.9 mph SW1.4 kmh SW 3.6 mph5.8 kmh 29.70 in1005.8 mb 0.00 in0.0 mm 0.00 in0.0 mm 0.07 in1.8 mm
08:35 AM 50.9°F10.5°C 46.9°F8.3°C 86% 0.4 mph SW0.6 kmh SW 1.8 mph2.9 kmh 29.70 in1005.8 mb 0.00 in0.0 mm 0.00 in0.0 mm 0.07 in1.8 mm
08:40 AM 51.0°F10.6°C 47.3°F8.5°C 87% Calm Calm -- 29.70 in1005.8 mb 0.00 in0.0 mm 0.00 in0.0 mm 0.07 in1.8 mm
08:45 AM 50.9°F10.5°C 47.2°F8.4°C 87% Calm Calm -- 29.71 in1006.1 mb 0.00 in0.0 mm 0.00 in0.0 mm 0.07 in1.8 mm
08:50 AM 50.9°F10.5°C 47.2°F8.4°C 87% Calm Calm -- 29.71 in1006.1 mb 0.00 in0.0 mm 0.00 in0.0 mm 0.07 in1.8 mm
08:55 AM 50.9°F10.5°C 47.5°F8.6°C 88% Calm Calm 1.8 mph2.9 kmh 29.71 in1006.1 mb 0.00 in0.0 mm 0.00 in0.0 mm 0.07 in1.8 mm
09:00 AM 50.9°F10.5°C 47.5°F8.6°C 88% 0.9 mph SE1.4 kmh SE 2.2 mph3.5 kmh 29.71 in1006.1 mb 0.00 in0.0 mm 0.00 in0.0 mm 0.07 in1.8 mm
09:05 AM 50.9°F10.5°C 47.8°F8.8°C 89% 1.3 mph SE2.1 kmh SE 4.9 mph7.9 kmh 29.71 in1006.1 mb 0.00 in0.0 mm 0.00 in0.0 mm 0.07 in1.8 mm
09:10 AM 50.9°F10.5°C 48.1°F8.9°C 90% 1.8 mph SE2.9 kmh SE 4.9 mph7.9 kmh 29.71 in1006.1 mb 0.00 in0.0 mm 0.00 in0.0 mm 0.07 in1.8 mm
09:15 AM 50.5°F10.3°C 48.0°F8.9°C 91% 2.2 mph SE3.5 kmh SE 9.4 mph15.1 kmh 29.71 in1006.1 mb 0.00 in0.0 mm 0.00 in0.0 mm 0.07 in1.8 mm
09:20 AM 50.5°F10.3°C 48.0°F8.9°C 91% 1.8 mph E2.9 kmh E 9.4 mph15.1 kmh 29.71 in1006.1 mb 0.00 in0.0 mm 0.00 in0.0 mm 0.07 in1.8 mm
09:25 AM 50.5°F10.3°C 48.0°F8.9°C 91% 1.8 mph E2.9 kmh E 4.5 mph7.2 kmh 29.72 in1006.4 mb 0.01 in0.3 mm 0.12 in3.0 mm 0.08 in2.0 mm
09:30 AM 50.3°F10.2°C 48.1°F8.9°C 92% 2.2 mph E3.5 kmh E 7.6 mph12.2 kmh 29.72 in1006.4 mb 0.01 in0.3 mm 0.00 in0.0 mm 0.08 in2.0 mm
09:35 AM 50.3°F10.2°C 47.8°F8.8°C 91% 1.3 mph E2.1 kmh E 7.6 mph12.2 kmh 29.72 in1006.4 mb 0.02 in0.5 mm 0.12 in3.0 mm 0.09 in2.3 mm
09:40 AM 50.7°F10.4°C 48.5°F9.2°C 92% 1.3 mph ENE2.1 kmh ENE 2.7 mph4.3 kmh 29.72 in1006.4 mb 0.02 in0.5 mm 0.00 in0.0 mm 0.09 in2.3 mm
09:45 AM 50.5°F10.3°C 48.0°F8.9°C 91% 1.3 mph NE2.1 kmh NE 4.9 mph7.9 kmh 29.73 in1006.8 mb 0.02 in0.5 mm 0.00 in0.0 mm 0.09 in2.3 mm
09:50 AM 50.9°F10.5°C 48.4°F9.1°C 91% 1.3 mph NE2.1 kmh NE 4.9 mph7.9 kmh 29.73 in1006.8 mb 0.02 in0.5 mm 0.00 in0.0 mm 0.09 in2.3 mm
09:55 AM 51.4°F10.8°C 48.9°F9.4°C 91% 0.9 mph NE1.4 kmh NE 2.2 mph3.5 kmh 29.73 in1006.8 mb 0.02 in0.5 mm 0.00 in0.0 mm 0.09 in2.3 mm
10:00 AM 51.6°F10.9°C 48.8°F9.3°C 90% 0.9 mph NE1.4 kmh NE 3.6 mph5.8 kmh 29.73 in1006.8 mb 0.02 in0.5 mm 0.00 in0.0 mm 0.09 in2.3 mm
10:05 AM 50.9°F10.5°C 47.2°F8.4°C 87% 1.8 mph E2.9 kmh E 4.9 mph7.9 kmh 29.73 in1006.8 mb 0.02 in0.5 mm 0.00 in0.0 mm 0.09 in2.3 mm
10:10 AM 50.5°F10.3°C 46.2°F7.9°C 85% 3.1 mph E5.0 kmh E 5.4 mph8.7 kmh 29.73 in1006.8 mb 0.02 in0.5 mm 0.00 in0.0 mm 0.09 in2.3 mm
10:15 AM 50.7°F10.4°C 46.4°F8.0°C 85% 3.1 mph E5.0 kmh E 5.4 mph8.7 kmh 29.74 in1007.1 mb 0.02 in0.5 mm 0.00 in0.0 mm 0.09 in2.3 mm
10:20 AM 50.9°F10.5°C 46.3°F7.9°C 84% 2.7 mph ESE4.3 kmh ESE 7.2 mph11.6 kmh 29.74 in1007.1 mb 0.02 in0.5 mm 0.00 in0.0 mm 0.09 in2.3 mm
10:25 AM 50.9°F10.5°C 45.6°F7.6°C 82% 2.2 mph ESE3.5 kmh ESE 7.2 mph11.6 kmh 29.74 in1007.1 mb 0.01 in0.3 mm 0.00 in0.0 mm 0.09 in2.3 mm
10:30 AM 50.9°F10.5°C 45.6°F7.6°C 82% 3.6 mph ESE5.8 kmh ESE 9.0 mph14.5 kmh 29.75 in1007.5 mb 0.00 in0.0 mm 0.00 in0.0 mm 0.09 in2.3 mm
10:35 AM 50.0°F10.0°C 43.8°F6.6°C 79% 4.5 mph ESE7.2 kmh ESE 10.8 mph17.4 kmh 29.75 in1007.5 mb 0.00 in0.0 mm 0.00 in0.0 mm 0.09 in2.3 mm
10:40 AM 50.1°F10.1°C 43.9°F6.6°C 79% 4.5 mph SE7.2 kmh SE 10.8 mph17.4 kmh 29.75 in1007.5 mb 0.00 in0.0 mm 0.00 in0.0 mm 0.09 in2.3 mm
10:45 AM 50.3°F10.2°C 44.4°F6.9°C 80% 4.0 mph ESE6.4 kmh ESE 9.4 mph15.1 kmh 29.75 in1007.5 mb 0.00 in0.0 mm 0.00 in0.0 mm 0.09 in2.3 mm
10:50 AM 50.3°F10.2°C 43.7°F6.5°C 78% 3.6 mph ESE5.8 kmh ESE 8.5 mph13.7 kmh 29.75 in1007.5 mb 0.00 in0.0 mm 0.00 in0.0 mm 0.09 in2.3 mm
10:55 AM 50.0°F10.0°C 43.8°F6.6°C 79% 3.6 mph ESE5.8 kmh ESE 9.9 mph15.9 kmh 29.74 in1007.1 mb 0.00 in0.0 mm 0.00 in0.0 mm 0.09 in2.3 mm
11:00 AM 50.3°F10.2°C 44.4°F6.9°C 80% 4.0 mph SE6.4 kmh SE 9.9 mph15.9 kmh 29.74 in1007.1 mb 0.00 in0.0 mm 0.00 in0.0 mm 0.09 in2.3 mm
11:05 AM 50.5°F10.3°C 44.3°F6.8°C 79% 3.6 mph SE5.8 kmh SE 8.1 mph13.0 kmh 29.75 in1007.5 mb 0.00 in0.0 mm 0.00 in0.0 mm 0.09 in2.3 mm
11:10 AM 50.7°F10.4°C 44.1°F6.7°C 78% 3.1 mph SE5.0 kmh SE 8.1 mph13.0 kmh 29.75 in1007.5 mb 0.00 in0.0 mm 0.00 in0.0 mm 0.09 in2.3 mm
11:15 AM 50.9°F10.5°C 44.0°F6.7°C 77% 3.1 mph ESE5.0 kmh ESE 6.3 mph10.1 kmh 29.74 in1007.1 mb 0.00 in0.0 mm 0.00 in0.0 mm 0.09 in2.3 mm
11:20 AM 51.0°F10.6°C 43.7°F6.5°C 76% 3.1 mph E5.0 kmh E 7.6 mph12.2 kmh 29.75 in1007.5 mb 0.00 in0.0 mm 0.00 in0.0 mm 0.09 in2.3 mm
11:25 AM 51.0°F10.6°C 43.0°F6.1°C 74% 3.6 mph ESE5.8 kmh ESE 7.6 mph12.2 kmh 29.74 in1007.1 mb 0.00 in0.0 mm 0.00 in0.0 mm 0.09 in2.3 mm
11:30 AM 51.0°F10.6°C 42.7°F5.9°C 73% 4.5 mph ESE7.2 kmh ESE 9.4 mph15.1 kmh 29.74 in1007.1 mb 0.00 in0.0 mm 0.00 in0.0 mm 0.09 in2.3 mm
11:35 AM 51.2°F10.7°C 43.2°F6.2°C 74% 4.5 mph SE7.2 kmh SE 9.9 mph15.9 kmh 29.74 in1007.1 mb 0.00 in0.0 mm 0.00 in0.0 mm 0.09 in2.3 mm
11:40 AM 51.0°F10.6°C 43.0°F6.1°C 74% 4.0 mph SE6.4 kmh SE 9.9 mph15.9 kmh 29.74 in1007.1 mb 0.00 in0.0 mm 0.00 in0.0 mm 0.09 in2.3 mm
11:45 AM 50.9°F10.5°C 42.9°F6.1°C 74% 4.5 mph SE7.2 kmh SE 9.0 mph14.5 kmh 29.74 in1007.1 mb 0.00 in0.0 mm 0.00 in0.0 mm 0.09 in2.3 mm
11:50 AM 50.9°F10.5°C 42.9°F6.1°C 74% 4.5 mph SE7.2 kmh SE 10.3 mph16.6 kmh 29.74 in1007.1 mb 0.00 in0.0 mm 0.00 in0.0 mm 0.09 in2.3 mm
11:55 AM 50.7°F10.4°C 42.8°F6.0°C 74% 4.0 mph SE6.4 kmh SE 10.3 mph16.6 kmh 29.74 in1007.1 mb 0.00 in0.0 mm 0.00 in0.0 mm 0.09 in2.3 mm
12:00 PM 51.0°F10.6°C 43.0°F6.1°C 74% 3.6 mph SE5.8 kmh SE 9.4 mph15.1 kmh 29.74 in1007.1 mb 0.00 in0.0 mm 0.00 in0.0 mm 0.09 in2.3 mm
12:05 PM 51.2°F10.7°C 42.9°F6.1°C 73% 3.6 mph SE5.8 kmh SE 9.4 mph15.1 kmh 29.74 in1007.1 mb 0.00 in0.0 mm 0.00 in0.0 mm 0.09 in2.3 mm
12:10 PM 50.9°F10.5°C 42.9°F6.1°C 74% 4.5 mph SE7.2 kmh SE 9.4 mph15.1 kmh 29.74 in1007.1 mb 0.00 in0.0 mm 0.00 in0.0 mm 0.09 in2.3 mm
12:15 PM 51.0°F10.6°C 43.0°F6.1°C 74% 4.9 mph SE7.9 kmh SE 9.4 mph15.1 kmh 29.74 in1007.1 mb 0.00 in0.0 mm 0.00 in0.0 mm 0.09 in2.3 mm
12:20 PM 50.7°F10.4°C 42.4°F5.8°C 73% 3.6 mph SE5.8 kmh SE 9.0 mph14.5 kmh 29.74 in1007.1 mb 0.00 in0.0 mm 0.00 in0.0 mm 0.09 in2.3 mm
12:25 PM 50.9°F10.5°C 42.6°F5.9°C 73% 3.6 mph SE5.8 kmh SE 9.0 mph14.5 kmh 29.74 in1007.1 mb 0.00 in0.0 mm 0.00 in0.0 mm 0.09 in2.3 mm
12:30 PM 50.9°F10.5°C 42.6°F5.9°C 73% 3.1 mph SSE5.0 kmh SSE 8.5 mph13.7 kmh 29.74 in1007.1 mb 0.00 in0.0 mm 0.00 in0.0 mm 0.09 in2.3 mm
12:35 PM 50.3°F10.2°C 42.4°F5.8°C 74% 3.1 mph S5.0 kmh S 7.6 mph12.2 kmh 29.74 in1007.1 mb 0.00 in0.0 mm 0.00 in0.0 mm 0.09 in2.3 mm
12:40 PM 50.5°F10.3°C 42.6°F5.9°C 74% 3.1 mph SE5.0 kmh SE 7.6 mph12.2 kmh 29.74 in1007.1 mb 0.00 in0.0 mm 0.00 in0.0 mm 0.09 in2.3 mm
12:45 PM 50.3°F10.2°C 42.4°F5.8°C 74% 3.1 mph SE5.0 kmh SE 6.3 mph10.1 kmh 29.74 in1007.1 mb 0.00 in0.0 mm 0.00 in0.0 mm 0.09 in2.3 mm
12:50 PM 49.8°F9.9°C 42.2°F5.7°C 75% 4.0 mph SSE6.4 kmh SSE 8.1 mph13.0 kmh 29.74 in1007.1 mb 0.00 in0.0 mm 0.00 in0.0 mm 0.09 in2.3 mm
12:55 PM 50.0°F10.0°C 42.8°F6.0°C 76% 3.6 mph SSE5.8 kmh SSE 8.1 mph13.0 kmh 29.74 in1007.1 mb 0.00 in0.0 mm 0.00 in0.0 mm 0.09 in2.3 mm
01:00 PM 49.8°F9.9°C 42.2°F5.7°C 75% 3.1 mph SE5.0 kmh SE 7.2 mph11.6 kmh 29.74 in1007.1 mb 0.00 in0.0 mm 0.00 in0.0 mm 0.09 in2.3 mm
01:05 PM 49.8°F9.9°C 42.6°F5.9°C 76% 4.0 mph SE6.4 kmh SE 7.6 mph12.2 kmh 29.74 in1007.1 mb 0.00 in0.0 mm 0.00 in0.0 mm 0.09 in2.3 mm
01:10 PM 50.1°F10.1°C 42.9°F6.1°C 76% 4.0 mph SE6.4 kmh SE 9.9 mph15.9 kmh 29.74 in1007.1 mb 0.00 in0.0 mm 0.00 in0.0 mm 0.09 in2.3 mm
01:15 PM 50.1°F10.1°C 42.9°F6.1°C 76% 3.6 mph SE5.8 kmh SE 9.9 mph15.9 kmh 29.74 in1007.1 mb 0.00 in0.0 mm 0.00 in0.0 mm 0.09 in2.3 mm
01:20 PM 50.0°F10.0°C 43.1°F6.2°C 77% 4.0 mph SE6.4 kmh SE 12.5 mph20.1 kmh 29.74 in1007.1 mb 0.00 in0.0 mm 0.00 in0.0 mm 0.09 in2.3 mm
01:25 PM 49.6°F9.8°C 43.1°F6.2°C 78% 3.6 mph SE5.8 kmh SE 12.5 mph20.1 kmh 29.74 in1007.1 mb 0.00 in0.0 mm 0.00 in0.0 mm 0.09 in2.3 mm
01:30 PM 49.2°F9.6°C 43.0°F6.1°C 79% 3.1 mph SE5.0 kmh SE 7.6 mph12.2 kmh 29.75 in1007.5 mb 0.00 in0.0 mm 0.00 in0.0 mm 0.09 in2.3 mm
01:35 PM 48.9°F9.4°C 43.0°F6.1°C 80% 3.6 mph SE5.8 kmh SE 16.1 mph25.9 kmh 29.74 in1007.1 mb 0.00 in0.0 mm 0.00 in0.0 mm 0.09 in2.3 mm
01:40 PM 48.5°F9.2°C 43.3°F6.3°C 82% 3.6 mph ESE5.8 kmh ESE 16.1 mph25.9 kmh 29.75 in1007.5 mb 0.00 in0.0 mm 0.00 in0.0 mm 0.09 in2.3 mm
01:45 PM 48.5°F9.2°C 43.6°F6.4°C 83% 3.6 mph ESE5.8 kmh ESE 8.1 mph13.0 kmh 29.75 in1007.5 mb 0.00 in0.0 mm 0.00 in0.0 mm 0.09 in2.3 mm
01:50 PM 48.3°F9.1°C 43.4°F6.3°C 83% 2.7 mph SE4.3 kmh SE 8.1 mph13.0 kmh 29.75 in1007.5 mb 0.00 in0.0 mm 0.00 in0.0 mm 0.09 in2.3 mm
01:55 PM 48.2°F9.0°C 43.9°F6.6°C 85% 1.8 mph SSE2.9 kmh SSE 4.9 mph7.9 kmh 29.76 in1007.8 mb 0.02 in0.5 mm 0.24 in6.1 mm 0.10 in2.5 mm
02:00 PM 47.6°F8.7°C 44.0°F6.7°C 87% 3.6 mph SSE5.8 kmh SSE 9.0 mph14.5 kmh 29.76 in1007.8 mb 0.03 in0.8 mm 0.01 in0.3 mm 0.12 in3.0 mm
02:05 PM 47.6°F8.7°C 44.6°F7.0°C 89% 3.1 mph S5.0 kmh S 9.0 mph14.5 kmh 29.76 in1007.8 mb 0.05 in1.3 mm 0.24 in6.1 mm 0.13 in3.3 mm
02:10 PM 47.6°F8.7°C 44.9°F7.2°C 90% 2.2 mph SE3.5 kmh SE 6.7 mph10.8 kmh 29.75 in1007.5 mb 0.05 in1.3 mm 0.00 in0.0 mm 0.13 in3.3 mm
02:15 PM 48.2°F9.0°C 45.4°F7.4°C 90% 2.7 mph SSE4.3 kmh SSE 6.7 mph10.8 kmh 29.75 in1007.5 mb 0.05 in1.3 mm 0.00 in0.0 mm 0.13 in3.3 mm
02:20 PM 48.2°F9.0°C 45.1°F7.3°C 89% 3.1 mph SSE5.0 kmh SSE 7.2 mph11.6 kmh 29.75 in1007.5 mb 0.05 in1.3 mm 0.00 in0.0 mm 0.13 in3.3 mm
02:25 PM 48.0°F8.9°C 45.0°F7.2°C 89% 3.1 mph SE5.0 kmh SE 7.2 mph11.6 kmh 29.75 in1007.5 mb 0.05 in1.3 mm 0.00 in0.0 mm 0.13 in3.3 mm
02:30 PM 48.5°F9.2°C 45.1°F7.3°C 88% 2.2 mph SE3.5 kmh SE 4.5 mph7.2 kmh 29.75 in1007.5 mb 0.05 in1.3 mm 0.00 in0.0 mm 0.13 in3.3 mm
02:35 PM 49.8°F9.9°C 46.1°F7.8°C 87% 1.8 mph SE2.9 kmh SE 4.5 mph7.2 kmh 29.75 in1007.5 mb 0.05 in1.3 mm 0.00 in0.0 mm 0.13 in3.3 mm
02:40 PM 49.6°F9.8°C 45.6°F7.6°C 86% 2.2 mph SE3.5 kmh SE 4.9 mph7.9 kmh 29.75 in1007.5 mb 0.05 in1.3 mm 0.00 in0.0 mm 0.13 in3.3 mm
02:45 PM 49.2°F9.6°C 44.6°F7.0°C 84% 2.7 mph ESE4.3 kmh ESE 4.9 mph7.9 kmh 29.75 in1007.5 mb 0.05 in1.3 mm 0.00 in0.0 mm 0.13 in3.3 mm
02:50 PM 48.9°F9.4°C 44.0°F6.7°C 83% 2.2 mph ESE3.5 kmh ESE 4.9 mph7.9 kmh 29.75 in1007.5 mb 0.05 in1.3 mm 0.00 in0.0 mm 0.13 in3.3 mm
02:55 PM 49.2°F9.6°C 44.3°F6.8°C 83% 1.8 mph SE2.9 kmh SE 4.5 mph7.2 kmh 29.76 in1007.8 mb 0.03 in0.8 mm 0.00 in0.0 mm 0.13 in3.3 mm
03:00 PM 49.6°F9.8°C 44.4°F6.9°C 82% 1.3 mph SE2.1 kmh SE 2.7 mph4.3 kmh 29.75 in1007.5 mb 0.02 in0.5 mm 0.00 in0.0 mm 0.13 in3.3 mm
03:05 PM 50.3°F10.2°C 45.1°F7.3°C 82% 1.3 mph E2.1 kmh E 3.1 mph5.0 kmh 29.75 in1007.5 mb 0.00 in0.0 mm 0.00 in0.0 mm 0.13 in3.3 mm
03:10 PM 51.0°F10.6°C 46.1°F7.8°C 83% 1.8 mph NE2.9 kmh NE 3.6 mph5.8 kmh 29.76 in1007.8 mb 0.00 in0.0 mm 0.00 in0.0 mm 0.13 in3.3 mm
03:15 PM 51.0°F10.6°C 45.7°F7.6°C 82% 1.8 mph NNE2.9 kmh NNE 3.6 mph5.8 kmh 29.76 in1007.8 mb 0.00 in0.0 mm 0.00 in0.0 mm 0.13 in3.3 mm
03:20 PM 50.5°F10.3°C 44.9°F7.2°C 81% 1.8 mph NNE2.9 kmh NNE 3.1 mph5.0 kmh 29.76 in1007.8 mb 0.00 in0.0 mm 0.00 in0.0 mm 0.13 in3.3 mm
03:25 PM 50.1°F10.1°C 44.2°F6.8°C 80% 1.8 mph NE2.9 kmh NE 2.7 mph4.3 kmh 29.76 in1007.8 mb 0.00 in0.0 mm 0.00 in0.0 mm 0.13 in3.3 mm
03:30 PM 50.0°F10.0°C 44.1°F6.7°C 80% 1.3 mph NE2.1 kmh NE 2.7 mph4.3 kmh 29.76 in1007.8 mb 0.00 in0.0 mm 0.00 in0.0 mm 0.13 in3.3 mm
03:35 PM 50.1°F10.1°C 44.2°F6.8°C 80% 0.9 mph NE1.4 kmh NE 2.2 mph3.5 kmh 29.77 in1008.1 mb 0.00 in0.0 mm 0.00 in0.0 mm 0.13 in3.3 mm
03:40 PM 50.3°F10.2°C 44.4°F6.9°C 80% 0.9 mph NE1.4 kmh NE 2.2 mph3.5 kmh 29.76 in1007.8 mb 0.00 in0.0 mm 0.00 in0.0 mm 0.13 in3.3 mm
03:45 PM 50.7°F10.4°C 45.8°F7.7°C 83% 1.3 mph NE2.1 kmh NE 2.7 mph4.3 kmh 29.76 in1007.8 mb 0.00 in0.0 mm 0.00 in0.0 mm 0.13 in3.3 mm
03:50 PM 50.9°F10.5°C 45.6°F7.6°C 82% 1.8 mph NNE2.9 kmh NNE 2.7 mph4.3 kmh 29.76 in1007.8 mb 0.00 in0.0 mm 0.00 in0.0 mm 0.13 in3.3 mm
03:55 PM 51.0°F10.6°C 45.7°F7.6°C 82% 1.8 mph N2.9 kmh N 2.7 mph4.3 kmh 29.76 in1007.8 mb 0.00 in0.0 mm 0.00 in0.0 mm 0.13 in3.3 mm
04:00 PM 50.9°F10.5°C 44.7°F7.1°C 79% 1.8 mph NNE2.9 kmh NNE 2.7 mph4.3 kmh 29.76 in1007.8 mb 0.00 in0.0 mm 0.00 in0.0 mm 0.13 in3.3 mm
04:05 PM 51.2°F10.7°C 45.6°F7.6°C 81% 1.8 mph NE2.9 kmh NE 2.7 mph4.3 kmh 29.76 in1007.8 mb 0.00 in0.0 mm 0.00 in0.0 mm 0.13 in3.3 mm
04:10 PM 50.9°F10.5°C 45.3°F7.4°C 81% 1.8 mph NE2.9 kmh NE 3.6 mph5.8 kmh 29.77 in1008.1 mb 0.00 in0.0 mm 0.00 in0.0 mm 0.13 in3.3 mm
04:15 PM 50.3°F10.2°C 44.7°F7.1°C 81% 1.8 mph NE2.9 kmh NE 3.6 mph5.8 kmh 29.77 in1008.1 mb 0.00 in0.0 mm 0.00 in0.0 mm 0.13 in3.3 mm
04:20 PM 50.1°F10.1°C 44.5°F6.9°C 81% 1.8 mph E2.9 kmh E 6.3 mph10.1 kmh 29.77 in1008.1 mb 0.00 in0.0 mm 0.00 in0.0 mm 0.13 in3.3 mm
04:25 PM 49.2°F9.6°C 44.9°F7.2°C 85% 2.7 mph E4.3 kmh E 6.3 mph10.1 kmh 29.77 in1008.1 mb 0.00 in0.0 mm 0.00 in0.0 mm 0.13 in3.3 mm
04:30 PM 49.2°F9.6°C 44.9°F7.2°C 85% 2.2 mph ENE3.5 kmh ENE 5.8 mph9.3 kmh 29.77 in1008.1 mb 0.00 in0.0 mm 0.00 in0.0 mm 0.13 in3.3 mm
04:35 PM 49.2°F9.6°C 44.9°F7.2°C 85% 1.8 mph NE2.9 kmh NE 3.1 mph5.0 kmh 29.77 in1008.1 mb 0.00 in0.0 mm 0.00 in0.0 mm 0.13 in3.3 mm
04:40 PM 49.2°F9.6°C 44.9°F7.2°C 85% 2.2 mph NE3.5 kmh NE 3.6 mph5.8 kmh 29.77 in1008.1 mb 0.00 in0.0 mm 0.00 in0.0 mm 0.13 in3.3 mm
04:45 PM 48.7°F9.3°C 45.3°F7.4°C 88% 1.8 mph NNE2.9 kmh NNE 3.6 mph5.8 kmh 29.77 in1008.1 mb 0.00 in0.0 mm 0.00 in0.0 mm 0.13 in3.3 mm
04:50 PM 48.3°F9.1°C 45.0°F7.2°C 88% 1.3 mph NE2.1 kmh NE 2.2 mph3.5 kmh 29.77 in1008.1 mb 0.00 in0.0 mm 0.00 in0.0 mm 0.13 in3.3 mm
04:55 PM 48.5°F9.2°C 45.4°F7.4°C 89% 1.3 mph NE2.1 kmh NE 2.7 mph4.3 kmh 29.78 in1008.5 mb 0.00 in0.0 mm 0.00 in0.0 mm 0.13 in3.3 mm
05:00 PM 48.3°F9.1°C 45.2°F7.3°C 89% 1.3 mph NNE2.1 kmh NNE 2.7 mph4.3 kmh 29.78 in1008.5 mb 0.00 in0.0 mm 0.00 in0.0 mm 0.13 in3.3 mm
05:05 PM 48.0°F8.9°C 45.2°F7.3°C 90% 1.3 mph NE2.1 kmh NE 2.7 mph4.3 kmh 29.77 in1008.1 mb 0.00 in0.0 mm 0.00 in0.0 mm 0.13 in3.3 mm
05:10 PM 48.0°F8.9°C 45.2°F7.3°C 90% 1.8 mph NE2.9 kmh NE 4.0 mph6.4 kmh 29.77 in1008.1 mb 0.00 in0.0 mm 0.00 in0.0 mm 0.13 in3.3 mm
05:15 PM 48.0°F8.9°C 45.2°F7.3°C 90% 2.2 mph NE3.5 kmh NE 4.0 mph6.4 kmh 29.78 in1008.5 mb 0.00 in0.0 mm 0.00 in0.0 mm 0.13 in3.3 mm
05:20 PM 47.4°F8.6°C 44.7°F7.1°C 90% 1.3 mph NE2.1 kmh NE 2.2 mph3.5 kmh 29.78 in1008.5 mb 0.00 in0.0 mm 0.00 in0.0 mm 0.13 in3.3 mm
05:25 PM 47.3°F8.5°C 44.6°F7.0°C 90% 0.4 mph NE0.6 kmh NE 1.8 mph2.9 kmh 29.79 in1008.8 mb 0.00 in0.0 mm 0.00 in0.0 mm 0.13 in3.3 mm
05:30 PM 47.3°F8.5°C 44.6°F7.0°C 90% Calm Calm 0.9 mph1.4 kmh 29.79 in1008.8 mb 0.00 in0.0 mm 0.00 in0.0 mm 0.13 in3.3 mm
05:35 PM 47.1°F8.4°C 44.6°F7.0°C 91% 0.9 mph SE1.4 kmh SE 4.5 mph7.2 kmh 29.79 in1008.8 mb 0.00 in0.0 mm 0.00 in0.0 mm 0.13 in3.3 mm
05:40 PM 46.7°F8.2°C 44.3°F6.8°C 91% 2.2 mph SE3.5 kmh SE 4.5 mph7.2 kmh 29.79 in1008.8 mb 0.00 in0.0 mm 0.00 in0.0 mm 0.13 in3.3 mm
05:45 PM 46.9°F8.3°C 44.4°F6.9°C 91% 1.8 mph SE2.9 kmh SE 4.5 mph7.2 kmh 29.79 in1008.8 mb 0.00 in0.0 mm 0.00 in0.0 mm 0.13 in3.3 mm
05:50 PM 46.7°F8.2°C 44.3°F6.8°C 91% 0.9 mph SE1.4 kmh SE 3.1 mph5.0 kmh 29.79 in1008.8 mb 0.00 in0.0 mm 0.00 in0.0 mm 0.13 in3.3 mm
05:55 PM 46.9°F8.3°C 44.7°F7.1°C 92% 0.4 mph NE0.6 kmh NE 1.8 mph2.9 kmh 29.80 in1009.1 mb 0.00 in0.0 mm 0.00 in0.0 mm 0.13 in3.3 mm
06:00 PM 46.9°F8.3°C 44.7°F7.1°C 92% 0.9 mph N1.4 kmh N 3.1 mph5.0 kmh 29.79 in1008.8 mb 0.00 in0.0 mm 0.00 in0.0 mm 0.13 in3.3 mm
06:05 PM 46.4°F8.0°C 44.5°F6.9°C 93% 1.8 mph N2.9 kmh N 4.0 mph6.4 kmh 29.79 in1008.8 mb 0.00 in0.0 mm 0.00 in0.0 mm 0.13 in3.3 mm
06:10 PM 46.0°F7.8°C 44.1°F6.7°C 93% 1.8 mph NNW2.9 kmh NNW 4.0 mph6.4 kmh 29.80 in1009.1 mb 0.00 in0.0 mm 0.00 in0.0 mm 0.13 in3.3 mm
06:15 PM 45.5°F7.5°C 43.6°F6.4°C 93% 1.3 mph E2.1 kmh E 3.1 mph5.0 kmh 29.80 in1009.1 mb 0.00 in0.0 mm 0.00 in0.0 mm 0.13 in3.3 mm
06:20 PM 45.5°F7.5°C 43.6°F6.4°C 93% 1.3 mph SE2.1 kmh SE 3.1 mph5.0 kmh 29.80 in1009.1 mb 0.00 in0.0 mm 0.00 in0.0 mm 0.13 in3.3 mm
06:25 PM 45.3°F7.4°C 43.4°F6.3°C 93% 1.3 mph SE2.1 kmh SE 2.7 mph4.3 kmh 29.80 in1009.1 mb 0.00 in0.0 mm 0.00 in0.0 mm 0.13 in3.3 mm
06:30 PM 45.1°F7.3°C 43.2°F6.2°C 93% 0.9 mph SSE1.4 kmh SSE 2.7 mph4.3 kmh 29.81 in1009.5 mb 0.00 in0.0 mm 0.00 in0.0 mm 0.13 in3.3 mm
06:35 PM 44.7°F7.1°C 42.3°F5.7°C 91% 0.9 mph SSE1.4 kmh SSE 1.8 mph2.9 kmh 29.81 in1009.5 mb 0.00 in0.0 mm 0.00 in0.0 mm 0.13 in3.3 mm
06:40 PM 44.6°F7.0°C 42.2°F5.7°C 91% 1.3 mph ENE2.1 kmh ENE 3.6 mph5.8 kmh 29.80 in1009.1 mb 0.00 in0.0 mm 0.00 in0.0 mm 0.13 in3.3 mm
06:45 PM 44.0°F6.7°C 41.6°F5.3°C 91% 0.9 mph NE1.4 kmh NE 3.6 mph5.8 kmh 29.80 in1009.1 mb 0.00 in0.0 mm 0.00 in0.0 mm 0.13 in3.3 mm
06:50 PM 44.0°F6.7°C 41.6°F5.3°C 91% 0.4 mph ESE0.6 kmh ESE 2.2 mph3.5 kmh 29.81 in1009.5 mb 0.00 in0.0 mm 0.00 in0.0 mm 0.13 in3.3 mm
06:55 PM 43.8°F6.6°C 41.4°F5.2°C 91% 0.4 mph SE0.6 kmh SE 2.2 mph3.5 kmh 29.81 in1009.5 mb 0.00 in0.0 mm 0.00 in0.0 mm 0.13 in3.3 mm
07:00 PM 43.8°F6.6°C 41.7°F5.4°C 92% 0.9 mph ENE1.4 kmh ENE 2.7 mph4.3 kmh 29.81 in1009.5 mb 0.00 in0.0 mm 0.00 in0.0 mm 0.13 in3.3 mm
07:05 PM 43.5°F6.4°C 41.4°F5.2°C 92% 0.9 mph NE1.4 kmh NE 2.7 mph4.3 kmh 29.81 in1009.5 mb 0.00 in0.0 mm 0.00 in0.0 mm 0.13 in3.3 mm
07:10 PM 43.1°F6.2°C 41.3°F5.2°C 93% 0.4 mph ENE0.6 kmh ENE 2.2 mph3.5 kmh 29.81 in1009.5 mb 0.00 in0.0 mm 0.00 in0.0 mm 0.13 in3.3 mm
07:15 PM 42.8°F6.0°C 41.0°F5.0°C 93% Calm Calm 1.3 mph2.1 kmh 29.81 in1009.5 mb 0.00 in0.0 mm 0.00 in0.0 mm 0.13 in3.3 mm
07:20 PM 42.4°F5.8°C 40.6°F4.8°C 93% 0.4 mph ENE0.6 kmh ENE 1.3 mph2.1 kmh 29.82 in1009.8 mb 0.00 in0.0 mm 0.00 in0.0 mm 0.13 in3.3 mm
07:25 PM 42.2°F5.7°C 40.6°F4.8°C 94% 0.4 mph NNW0.6 kmh NNW 1.8 mph2.9 kmh 29.81 in1009.5 mb 0.00 in0.0 mm 0.00 in0.0 mm 0.13 in3.3 mm
07:30 PM 42.4°F5.8°C 40.8°F4.9°C 94% 1.3 mph N2.1 kmh N 3.6 mph5.8 kmh 29.81 in1009.5 mb 0.00 in0.0 mm 0.00 in0.0 mm 0.13 in3.3 mm
07:35 PM 42.4°F5.8°C 41.1°F5.1°C 95% 1.8 mph N2.9 kmh N 4.0 mph6.4 kmh 29.81 in1009.5 mb 0.00 in0.0 mm 0.00 in0.0 mm 0.13 in3.3 mm
07:40 PM 42.2°F5.7°C 40.9°F4.9°C 95% 2.2 mph NE3.5 kmh NE 10.8 mph17.4 kmh 29.82 in1009.8 mb 0.00 in0.0 mm 0.00 in0.0 mm 0.13 in3.3 mm
07:45 PM 42.2°F5.7°C 40.9°F4.9°C 95% 2.2 mph NE3.5 kmh NE 10.8 mph17.4 kmh 29.82 in1009.8 mb 0.00 in0.0 mm 0.00 in0.0 mm 0.13 in3.3 mm
07:50 PM 41.9°F5.5°C 40.6°F4.8°C 95% 0.4 mph S0.6 kmh S 2.7 mph4.3 kmh 29.82 in1009.8 mb 0.00 in0.0 mm 0.00 in0.0 mm 0.13 in3.3 mm
07:55 PM 41.7°F5.4°C 40.4°F4.7°C 95% 0.4 mph NE0.6 kmh NE 3.6 mph5.8 kmh 29.82 in1009.8 mb 0.00 in0.0 mm 0.00 in0.0 mm 0.13 in3.3 mm
08:00 PM 41.5°F5.3°C 40.2°F4.6°C 95% 0.9 mph NE1.4 kmh NE 3.6 mph5.8 kmh 29.82 in1009.8 mb 0.00 in0.0 mm 0.00 in0.0 mm 0.13 in3.3 mm
08:05 PM 41.5°F5.3°C 40.2°F4.6°C 95% Calm Calm 1.8 mph2.9 kmh 29.83 in1010.2 mb 0.00 in0.0 mm 0.00 in0.0 mm 0.13 in3.3 mm
08:10 PM 41.5°F5.3°C 40.2°F4.6°C 95% 0.4 mph NE0.6 kmh NE 3.6 mph5.8 kmh 29.83 in1010.2 mb 0.00 in0.0 mm 0.00 in0.0 mm 0.13 in3.3 mm
08:15 PM 41.7°F5.4°C 40.1°F4.5°C 94% 1.3 mph NE2.1 kmh NE 3.6 mph5.8 kmh 29.82 in1009.8 mb 0.00 in0.0 mm 0.00 in0.0 mm 0.13 in3.3 mm
08:20 PM 41.9°F5.5°C 40.3°F4.6°C 94% 1.3 mph N2.1 kmh N 3.6 mph5.8 kmh 29.83 in1010.2 mb 0.00 in0.0 mm 0.00 in0.0 mm 0.13 in3.3 mm
08:25 PM 42.0°F5.6°C 40.4°F4.7°C 94% 1.8 mph NNW2.9 kmh NNW 4.0 mph6.4 kmh 29.83 in1010.2 mb 0.00 in0.0 mm 0.00 in0.0 mm 0.13 in3.3 mm
08:30 PM 42.0°F5.6°C 40.4°F4.7°C 94% 2.7 mph NNW4.3 kmh NNW 5.4 mph8.7 kmh 29.83 in1010.2 mb 0.00 in0.0 mm 0.00 in0.0 mm 0.13 in3.3 mm
08:35 PM 42.2°F5.7°C 40.6°F4.8°C 94% 2.7 mph NNW4.3 kmh NNW 5.4 mph8.7 kmh 29.83 in1010.2 mb 0.00 in0.0 mm 0.00 in0.0 mm 0.13 in3.3 mm
08:40 PM 42.0°F5.6°C 40.4°F4.7°C 94% 2.2 mph N3.5 kmh N 4.5 mph7.2 kmh 29.83 in1010.2 mb 0.00 in0.0 mm 0.00 in0.0 mm 0.13 in3.3 mm
08:45 PM 42.2°F5.7°C 40.6°F4.8°C 94% 0.4 mph NNE0.6 kmh NNE 3.6 mph5.8 kmh 29.83 in1010.2 mb 0.00 in0.0 mm 0.00 in0.0 mm 0.13 in3.3 mm
08:50 PM 42.0°F5.6°C 40.4°F4.7°C 94% Calm Calm -- 29.84 in1010.5 mb 0.00 in0.0 mm 0.00 in0.0 mm 0.13 in3.3 mm
08:55 PM 41.9°F5.5°C 40.3°F4.6°C 94% Calm Calm -- 29.84 in1010.5 mb 0.00 in0.0 mm 0.00 in0.0 mm 0.13 in3.3 mm
09:00 PM 41.7°F5.4°C 40.1°F4.5°C 94% Calm Calm -- 29.85 in1010.8 mb 0.00 in0.0 mm 0.00 in0.0 mm 0.13 in3.3 mm
09:05 PM 41.9°F5.5°C 40.3°F4.6°C 94% Calm Calm -- 29.84 in1010.5 mb 0.00 in0.0 mm 0.00 in0.0 mm 0.13 in3.3 mm
09:10 PM 41.5°F5.3°C 39.9°F4.4°C 94% Calm Calm -- 29.84 in1010.5 mb 0.00 in0.0 mm 0.00 in0.0 mm 0.13 in3.3 mm
09:15 PM 41.3°F5.2°C 39.7°F4.3°C 94% Calm Calm -- 29.84 in1010.5 mb 0.00 in0.0 mm 0.00 in0.0 mm 0.13 in3.3 mm
09:20 PM 41.3°F5.2°C 39.7°F4.3°C 94% 0.4 mph WNW0.6 kmh WNW 2.7 mph4.3 kmh 29.84 in1010.5 mb 0.00 in0.0 mm 0.00 in0.0 mm 0.13 in3.3 mm
09:25 PM 41.1°F5.1°C 39.5°F4.2°C 94% 0.4 mph WNW0.6 kmh WNW 2.7 mph4.3 kmh 29.84 in1010.5 mb 0.00 in0.0 mm 0.00 in0.0 mm 0.13 in3.3 mm
09:30 PM 41.1°F5.1°C 39.5°F4.2°C 94% 1.3 mph N2.1 kmh N 4.9 mph7.9 kmh 29.84 in1010.5 mb 0.00 in0.0 mm 0.00 in0.0 mm 0.13 in3.3 mm
09:35 PM 41.0°F5.0°C 39.4°F4.1°C 94% 2.7 mph NNW4.3 kmh NNW 4.9 mph7.9 kmh 29.84 in1010.5 mb 0.00 in0.0 mm 0.00 in0.0 mm 0.13 in3.3 mm
09:40 PM 41.1°F5.1°C 39.5°F4.2°C 94% 2.2 mph NNW3.5 kmh NNW 4.5 mph7.2 kmh 29.85 in1010.8 mb 0.00 in0.0 mm 0.00 in0.0 mm 0.13 in3.3 mm
09:45 PM 40.6°F4.8°C 39.0°F3.9°C 94% 0.9 mph N1.4 kmh N 4.5 mph7.2 kmh 29.85 in1010.8 mb 0.00 in0.0 mm 0.00 in0.0 mm 0.13 in3.3 mm
09:50 PM 40.6°F4.8°C 39.0°F3.9°C 94% Calm Calm -- 29.85 in1010.8 mb 0.00 in0.0 mm 0.00 in0.0 mm 0.13 in3.3 mm
09:55 PM 40.6°F4.8°C 39.0°F3.9°C 94% Calm Calm -- 29.85 in1010.8 mb 0.00 in0.0 mm 0.00 in0.0 mm 0.13 in3.3 mm
10:00 PM 40.6°F4.8°C 39.0°F3.9°C 94% Calm Calm -- 29.85 in1010.8 mb 0.00 in0.0 mm 0.00 in0.0 mm 0.13 in3.3 mm
10:05 PM 40.6°F4.8°C 39.0°F3.9°C 94% Calm Calm -- 29.85 in1010.8 mb 0.00 in0.0 mm 0.00 in0.0 mm 0.13 in3.3 mm
10:10 PM 40.6°F4.8°C 39.0°F3.9°C 94% Calm Calm -- 29.85 in1010.8 mb 0.00 in0.0 mm 0.00 in0.0 mm 0.13 in3.3 mm
10:15 PM 40.6°F4.8°C 39.0°F3.9°C 94% Calm Calm -- 29.85 in1010.8 mb 0.00 in0.0 mm 0.00 in0.0 mm 0.13 in3.3 mm
10:20 PM 40.1°F4.5°C 38.8°F3.8°C 95% Calm Calm -- 29.85 in1010.8 mb 0.00 in0.0 mm 0.00 in0.0 mm 0.13 in3.3 mm
10:25 PM 39.7°F4.3°C 38.4°F3.6°C 95% Calm Calm -- 29.85 in1010.8 mb 0.00 in0.0 mm 0.00 in0.0 mm 0.13 in3.3 mm
10:30 PM 39.7°F4.3°C 38.4°F3.6°C 95% Calm Calm -- 29.86 in1011.2 mb 0.00 in0.0 mm 0.00 in0.0 mm 0.13 in3.3 mm
10:35 PM 39.7°F4.3°C 38.4°F3.6°C 95% Calm Calm -- 29.86 in1011.2 mb 0.00 in0.0 mm 0.00 in0.0 mm 0.13 in3.3 mm
10:40 PM 39.5°F4.2°C 38.2°F3.4°C 95% Calm Calm -- 29.86 in1011.2 mb 0.00 in0.0 mm 0.00 in0.0 mm 0.13 in3.3 mm
10:45 PM 39.3°F4.1°C 38.0°F3.3°C 95% Calm Calm -- 29.86 in1011.2 mb 0.00 in0.0 mm 0.00 in0.0 mm 0.13 in3.3 mm
10:50 PM 39.3°F4.1°C 38.3°F3.5°C 96% Calm Calm -- 29.86 in1011.2 mb 0.00 in0.0 mm 0.00 in0.0 mm 0.13 in3.3 mm
10:55 PM 39.3°F4.1°C 38.3°F3.5°C 96% Calm Calm -- 29.86 in1011.2 mb 0.00 in0.0 mm 0.00 in0.0 mm 0.13 in3.3 mm
11:00 PM 39.7°F4.3°C 38.7°F3.7°C 96% Calm Calm -- 29.86 in1011.2 mb 0.00 in0.0 mm 0.00 in0.0 mm 0.13 in3.3 mm
11:05 PM 40.1°F4.5°C 39.1°F3.9°C 96% Calm Calm 4.0 mph6.4 kmh 29.86 in1011.2 mb 0.00 in0.0 mm 0.00 in0.0 mm 0.13 in3.3 mm
11:10 PM 40.2°F4.6°C 38.9°F3.8°C 95% 1.3 mph WSW2.1 kmh WSW 4.5 mph7.2 kmh 29.86 in1011.2 mb 0.00 in0.0 mm 0.00 in0.0 mm 0.13 in3.3 mm
11:15 PM 40.4°F4.7°C 39.1°F3.9°C 95% 1.3 mph WSW2.1 kmh WSW 4.5 mph7.2 kmh 29.85 in1010.8 mb 0.00 in0.0 mm 0.00 in0.0 mm 0.13 in3.3 mm
11:20 PM 40.6°F4.8°C 39.0°F3.9°C 94% Calm Calm 3.1 mph5.0 kmh 29.86 in1011.2 mb 0.00 in0.0 mm 0.00 in0.0 mm 0.13 in3.3 mm
11:25 PM 40.6°F4.8°C 39.0°F3.9°C 94% 0.9 mph SW1.4 kmh SW 3.1 mph5.0 kmh 29.86 in1011.2 mb 0.00 in0.0 mm 0.00 in0.0 mm 0.13 in3.3 mm
11:30 PM 41.0°F5.0°C 39.2°F4.0°C 93% 2.2 mph SW3.5 kmh SW 5.8 mph9.3 kmh 29.86 in1011.2 mb 0.00 in0.0 mm 0.00 in0.0 mm 0.13 in3.3 mm
11:35 PM 41.1°F5.1°C 39.3°F4.1°C 93% 3.1 mph SW5.0 kmh SW 6.7 mph10.8 kmh 29.86 in1011.2 mb 0.00 in0.0 mm 0.00 in0.0 mm 0.13 in3.3 mm
11:40 PM 41.0°F5.0°C 38.9°F3.8°C 92% 3.1 mph SW5.0 kmh SW 6.7 mph10.8 kmh 29.86 in1011.2 mb 0.00 in0.0 mm 0.00 in0.0 mm 0.13 in3.3 mm
11:45 PM 41.0°F5.0°C 38.9°F3.8°C 92% 3.1 mph WSW5.0 kmh WSW 6.7 mph10.8 kmh 29.86 in1011.2 mb 0.00 in0.0 mm 0.00 in0.0 mm 0.13 in3.3 mm
11:50 PM 41.0°F5.0°C 38.9°F3.8°C 92% 2.7 mph SW4.3 kmh SW 6.7 mph10.8 kmh 29.86 in1011.2 mb 0.00 in0.0 mm 0.00 in0.0 mm 0.13 in3.3 mm
11:55 PM 40.6°F4.8°C 38.5°F3.6°C 92% 2.2 mph SSW3.5 kmh SSW 4.9 mph7.9 kmh 29.86 in1011.2 mb 0.00 in0.0 mm 0.00 in0.0 mm 0.13 in3.3 mm